Time;durP1;ratioP1;P1;durP2;ratioP2;P2;SDS_P1;SDS_P2;PMS_P1;PMS_P2;Temp;Humidity;BMP_temperature;BMP_pressure;BME280_temperature;BME280_humidity;BME280_pressure;Samples;Min_cycle;Max_cycle;Signal;HPM_P1;HPM_P2
2021/05/13 00:02:11;;;;;;;8.68;3.97;;;24.20;28.40;;;;;;4340823;33;20161;-37
2021/05/13 00:04:38;;;;;;;10.63;4.80;;;24.10;28.40;;;;;;4329326;33;20500;-35
2021/05/13 00:07:04;;;;;;;4.97;3.95;;;24.10;28.50;;;;;;4345454;32;20074;-36
2021/05/13 00:09:32;;;;;;;11.43;2.67;;;24.00;28.50;;;;;;4356517;32;20563;-35
2021/05/13 00:12:01;;;;;;;10.65;4.85;;;23.90;28.80;;;;;;4356345;32;20376;-36
2021/05/13 00:14:27;;;;;;;9.52;5.93;;;23.90;28.60;;;;;;4356030;32;20098;-36
2021/05/13 00:16:54;;;;;;;7.03;5.78;;;23.80;28.70;;;;;;4343650;32;20231;-36
2021/05/13 00:19:20;;;;;;;6.37;2.62;;;23.70;28.70;;;;;;4356360;32;20072;-35
2021/05/13 00:21:47;;;;;;;4.30;3.03;;;23.70;28.80;;;;;;4356174;32;20104;-36
2021/05/13 00:24:14;;;;;;;4.45;4.03;;;23.60;28.90;;;;;;4355803;32;20071;-36
2021/05/13 00:26:42;;;;;;;7.82;4.07;;;23.50;29.00;;;;;;4355941;32;20483;-36
2021/05/13 00:29:11;;;;;;;9.90;5.12;;;23.50;29.10;;;;;;4343977;32;20069;-36
2021/05/13 00:31:38;;;;;;;4.87;3.00;;;23.50;29.20;;;;;;4356375;32;20471;-37
2021/05/13 00:34:05;;;;;;;8.45;6.18;;;23.40;29.20;;;;;;4355899;32;20114;-36
2021/05/13 00:36:33;;;;;;;8.30;4.55;;;23.30;29.30;;;;;;4356031;32;20063;-37
2021/05/13 00:38:59;;;;;;;10.20;6.00;;;23.20;29.30;;;;;;4359977;32;20116;-36
2021/05/13 00:41:27;;;;;;;7.15;3.35;;;23.20;29.50;;;;;;4372888;32;20050;-36
2021/05/13 00:43:53;;;;;;;6.75;5.50;;;23.20;29.60;;;;;;4373145;32;20065;-35
2021/05/13 00:46:22;;;;;;;6.87;3.58;;;23.10;29.50;;;;;;4374773;32;20062;-35
2021/05/13 00:48:48;;;;;;;2.45;1.75;;;23.10;29.60;;;;;;4386880;32;20518;-37
2021/05/13 00:51:15;;;;;;;9.68;6.97;;;23.10;29.60;;;;;;4388053;32;20066;-37
2021/05/13 00:53:45;;;;;;;4.12;3.75;;;23.10;29.60;;;;;;4388565;32;20093;-36
2021/05/13 00:56:13;;;;;;;5.72;3.42;;;23.10;29.70;;;;;;4388146;32;20073;-36
2021/05/13 00:58:43;;;;;;;13.75;4.00;;;23.00;29.70;;;;;;4386954;32;20568;-36
2021/05/13 01:01:13;;;;;;;5.18;2.87;;;23.00;29.70;;;;;;4388244;32;20056;-37
2021/05/13 01:03:40;;;;;;;7.20;5.90;;;23.00;30.10;;;;;;4388458;32;20516;-36
2021/05/13 01:06:12;;;;;;;4.78;2.47;;;23.00;29.70;;;;;;4388154;32;20062;-36
2021/05/13 01:08:39;;;;;;;6.87;5.20;;;23.00;29.70;;;;;;4388155;32;20489;-36
2021/05/13 01:11:08;;;;;;;3.45;1.80;;;23.00;29.80;;;;;;4387864;32;20053;-36
2021/05/13 01:13:48;;;;;;;10.43;6.78;;;23.00;29.80;;;;;;4388398;32;20138;-36
2021/05/13 01:16:26;;;;;;;8.38;4.95;;;23.00;29.90;;;;;;4387838;32;20057;-36
2021/05/13 01:18:52;;;;;;;5.30;4.20;;;23.00;29.90;;;;;;4388042;32;20065;-35
2021/05/13 01:21:19;;;;;;;7.32;4.40;;;23.00;29.80;;;;;;4388421;32;20089;-36
2021/05/13 01:23:46;;;;;;;7.55;4.28;;;23.00;29.80;;;;;;4388027;32;20134;-36
2021/05/13 01:26:14;;;;;;;3.05;2.05;;;23.00;29.80;;;;;;4388292;32;20142;-35
2021/05/13 01:28:41;;;;;;;4.50;3.15;;;23.00;29.70;;;;;;4387839;32;20540;-34
2021/05/13 01:31:07;;;;;;;9.10;6.18;;;23.10;29.80;;;;;;4387775;32;20525;-36
2021/05/13 01:33:34;;;;;;;8.60;5.03;;;23.10;29.80;;;;;;4387557;32;20077;-36
2021/05/13 01:36:00;;;;;;;7.45;4.97;;;23.20;29.80;;;;;;4386362;32;20177;-36
2021/05/13 01:38:27;;;;;;;8.27;5.78;;;23.30;29.80;;;;;;4387917;32;20066;-36
2021/05/13 01:40:59;;;;;;;12.43;6.93;;;23.40;29.60;;;;;;4387451;32;20097;-36
2021/05/13 01:43:29;;;;;;;7.32;4.65;;;23.60;29.50;;;;;;4387322;32;20086;-36
2021/05/13 01:45:58;;;;;;;6.95;5.25;;;23.70;29.40;;;;;;4386482;32;20096;-36
2021/05/13 01:48:24;;;;;;;17.23;6.62;;;23.80;29.20;;;;;;4373283;32;20089;-36
2021/05/13 01:50:51;;;;;;;7.85;4.43;;;23.90;29.20;;;;;;4372831;32;20470;-36
2021/05/13 01:53:17;;;;;;;4.68;2.75;;;24.10;29.00;;;;;;4373999;32;20666;-36
2021/05/13 01:55:44;;;;;;;10.80;6.62;;;24.20;28.90;;;;;;4375931;32;20073;-37
2021/05/13 01:58:10;;;;;;;9.68;4.47;;;24.30;28.80;;;;;;4361745;32;20077;-36
2021/05/13 02:00:37;;;;;;;9.32;3.62;;;24.40;28.80;;;;;;4375469;32;20485;-36
2021/05/13 02:03:04;;;;;;;15.88;3.60;;;24.50;28.60;;;;;;4375201;32;20066;-36
2021/05/13 02:05:31;;;;;;;10.57;5.80;;;24.60;28.60;;;;;;4375432;32;20058;-36
2021/05/13 02:07:57;;;;;;;14.07;7.45;;;24.70;28.60;;;;;;4375602;32;20502;-36
2021/05/13 02:10:24;;;;;;;13.85;6.85;;;24.90;28.50;;;;;;4375536;32;20073;-36
2021/05/13 02:12:51;;;;;;;8.52;6.40;;;25.10;28.40;;;;;;4375235;32;20081;-37
2021/05/13 02:15:18;;;;;;;7.97;5.45;;;25.30;28.20;;;;;;4375523;32;20717;-36
2021/05/13 02:17:45;;;;;;;7.20;5.32;;;25.50;28.30;;;;;;4373912;32;20065;-37
2021/05/13 02:20:18;;;;;;;13.20;8.00;;;25.80;27.80;;;;;;4373855;32;20133;-37
2021/05/13 02:22:45;;;;;;;7.90;4.15;;;26.10;27.60;;;;;;4375265;32;20058;-37
2021/05/13 02:25:12;;;;;;;11.73;6.97;;;26.40;27.40;;;;;;4375330;32;20082;-37
2021/05/13 02:27:39;;;;;;;7.20;6.20;;;26.60;27.30;;;;;;4375075;32;20085;-37
2021/05/13 02:30:07;;;;;;;9.82;6.22;;;27.00;27.00;;;;;;4375166;32;20157;-38
2021/05/13 02:32:34;;;;;;;9.32;4.62;;;27.30;26.80;;;;;;4375027;32;20089;-37
2021/05/13 02:35:00;;;;;;;7.03;5.78;;;27.60;26.30;;;;;;4375050;32;20080;-37
2021/05/13 02:37:27;;;;;;;7.68;4.97;;;27.90;26.10;;;;;;4373506;32;20077;-37
2021/05/13 02:39:53;;;;;;;6.55;3.72;;;28.10;26.00;;;;;;4374883;32;20151;-37
2021/05/13 02:42:19;;;;;;;6.47;4.95;;;28.20;25.80;;;;;;4374359;32;20074;-38
2021/05/13 02:44:46;;;;;;;3.17;2.53;;;28.40;25.80;;;;;;4373680;32;20072;-37
2021/05/13 02:47:12;;;;;;;11.52;6.15;;;28.50;25.60;;;;;;4382756;32;20065;-37
2021/05/13 02:49:39;;;;;;;7.55;4.22;;;28.60;25.70;;;;;;4388356;32;20170;-38
2021/05/13 02:52:06;;;;;;;7.20;4.37;;;28.70;25.60;;;;;;4390594;32;20141;-38
2021/05/13 02:54:32;;;;;;;7.75;5.50;;;28.80;25.50;;;;;;4388988;32;20202;-38
2021/05/13 02:56:59;;;;;;;6.93;4.45;;;29.00;25.70;;;;;;4388076;32;20065;-38
2021/05/13 02:59:33;;;;;;;7.07;5.40;;;29.10;25.30;;;;;;4389765;32;20070;-38
2021/05/13 03:02:00;;;;;;;7.20;3.58;;;29.30;25.30;;;;;;4389382;32;20065;-38
2021/05/13 03:04:26;;;;;;;6.30;5.07;;;29.50;25.10;;;;;;4388921;32;20502;-38
2021/05/13 03:06:53;;;;;;;14.05;6.47;;;29.60;24.90;;;;;;4389626;32;20502;-37
2021/05/13 03:09:20;;;;;;;6.60;3.53;;;29.80;25.00;;;;;;4389608;32;20148;-35
2021/05/13 03:11:46;;;;;;;7.20;5.12;;;30.00;24.90;;;;;;4389309;32;20058;-39
2021/05/13 03:14:13;;;;;;;6.45;5.32;;;30.20;24.70;;;;;;4389396;32;20062;-37
2021/05/13 03:16:39;;;;;;;7.50;5.82;;;30.40;24.60;;;;;;4387941;32;20243;-38
2021/05/13 03:19:11;;;;;;;15.95;5.68;;;30.60;24.50;;;;;;4389239;32;20610;-38
2021/05/13 03:21:41;;;;;;;12.27;5.55;;;30.90;24.20;;;;;;4389272;32;20064;-37
2021/05/13 03:24:30;;;;;;;6.87;5.10;;;31.20;24.20;;;;;;4389503;32;20077;-39
2021/05/13 03:27:12;;;;;;;8.27;5.68;;;31.50;23.90;;;;;;4389481;32;20559;-38
2021/05/13 03:29:38;;;;;;;9.02;5.55;;;31.80;23.80;;;;;;4388906;32;20213;-38
2021/05/13 03:32:05;;;;;;;8.98;4.70;;;31.90;23.70;;;;;;4388924;32;20614;-38
2021/05/13 03:34:32;;;;;;;7.93;4.65;;;31.90;23.20;;;;;;4388973;32;20069;-38
2021/05/13 03:36:58;;;;;;;10.30;5.35;;;32.00;23.40;;;;;;4388925;32;20510;-37
2021/05/13 03:39:25;;;;;;;13.23;6.53;;;31.90;23.30;;;;;;4389392;32;20119;-37
2021/05/13 03:41:51;;;;;;;11.10;5.15;;;31.80;23.30;;;;;;4389190;32;20081;-36
2021/05/13 03:44:18;;;;;;;13.00;6.20;;;31.70;23.30;;;;;;4389105;32;20070;-37
2021/05/13 03:46:44;;;;;;;9.27;5.53;;;31.50;23.50;;;;;;4366828;32;20059;-37
2021/05/13 03:49:11;;;;;;;8.25;5.87;;;31.30;23.60;;;;;;4355964;32;20185;-38
2021/05/13 03:51:37;;;;;;;9.07;5.65;;;31.10;23.70;;;;;;4356264;32;20104;-36
2021/05/13 03:54:04;;;;;;;8.52;5.22;;;30.90;23.80;;;;;;4356379;32;20066;-39
2021/05/13 03:56:31;;;;;;;13.30;5.53;;;30.70;24.10;;;;;;4356309;32;20090;-37
2021/05/13 03:59:01;;;;;;;9.63;5.18;;;30.50;24.10;;;;;;4356141;32;20077;-37
2021/05/13 04:01:42;;;;;;;8.10;5.70;;;30.20;24.20;;;;;;4355617;32;20054;-38
2021/05/13 04:04:09;;;;;;;8.25;5.85;;;29.90;24.50;;;;;;4356222;32;20070;-38
2021/05/13 04:06:36;;;;;;;9.32;5.22;;;29.70;24.60;;;;;;4356117;32;20165;-37
2021/05/13 04:09:08;;;;;;;10.73;5.28;;;29.40;24.80;;;;;;4355755;32;20518;-38
2021/05/13 04:11:36;;;;;;;7.78;5.15;;;29.10;25.00;;;;;;4344254;32;20117;-37
2021/05/13 04:14:04;;;;;;;6.18;5.57;;;28.80;25.20;;;;;;4355535;32;20611;-37
2021/05/13 04:16:33;;;;;;;11.02;5.37;;;28.60;25.60;;;;;;4356126;32;20140;-37
2021/05/13 04:18:59;;;;;;;10.38;5.80;;;28.40;25.80;;;;;;4356094;32;20125;-37
2021/05/13 04:21:26;;;;;;;7.05;5.22;;;28.20;25.90;;;;;;4343577;32;20121;-38
2021/05/13 04:23:52;;;;;;;9.90;5.75;;;28.10;26.00;;;;;;4362583;32;20503;-37
2021/05/13 04:26:18;;;;;;;6.85;4.68;;;28.10;26.20;;;;;;4372076;32;20482;-37
2021/05/13 04:28:45;;;;;;;15.90;2.87;;;28.00;26.10;;;;;;4372828;32;20174;-37
2021/05/13 04:31:11;;;;;;;8.27;3.92;;;27.90;26.30;;;;;;4371436;32;20066;-39
2021/05/13 04:33:38;;;;;;;13.27;4.75;;;27.70;27.00;;;;;;4373568;32;20069;-39
2021/05/13 04:36:05;;;;;;;11.10;6.07;;;27.60;28.60;;;;;;4371854;32;20066;-38
2021/05/13 04:38:32;;;;;;;5.35;3.37;;;27.40;31.10;;;;;;4372746;32;20481;-37
2021/05/13 04:40:58;;;;;;;7.65;3.90;;;27.20;32.40;;;;;;4372970;32;20597;-37
2021/05/13 04:43:31;;;;;;;7.97;3.05;;;27.00;34.40;;;;;;4372734;32;20077;-33
2021/05/13 04:45:58;;;;;;;5.80;2.25;;;26.80;35.80;;;;;;4358603;32;20141;-36
2021/05/13 04:48:26;;;;;;;3.62;1.15;;;26.60;37.60;;;;;;4385340;32;20159;-36
2021/05/13 04:50:53;;;;;;;1.98;0.68;;;26.30;38.50;;;;;;4385788;32;20590;-35
2021/05/13 04:53:19;;;;;;;0.82;0.60;;;26.00;39.40;;;;;;4385584;32;20067;-35
2021/05/13 04:55:46;;;;;;;1.30;0.75;;;25.80;40.60;;;;;;4372712;32;20161;-38
2021/05/13 04:58:12;;;;;;;3.80;0.90;;;25.50;41.50;;;;;;4360334;32;20470;-36
2021/05/13 05:00:39;;;;;;;2.37;1.73;;;25.30;42.50;;;;;;4385070;32;20089;-37
2021/05/13 05:03:06;;;;;;;2.78;0.70;;;25.00;43.00;;;;;;4385225;32;20092;-35
2021/05/13 05:05:32;;;;;;;0.95;0.43;;;24.80;43.80;;;;;;4372729;32;20068;-38
2021/05/13 05:07:59;;;;;;;4.57;1.25;;;24.60;43.80;;;;;;4385005;32;20186;-43
2021/05/13 05:10:25;;;;;;;3.42;0.73;;;24.50;44.40;;;;;;4385596;32;20550;-37
2021/05/13 05:12:52;;;;;;;2.70;0.70;;;24.40;45.30;;;;;;4385526;32;20477;-37
2021/05/13 05:15:18;;;;;;;2.00;1.10;;;24.30;46.10;;;;;;4385293;32;20521;-37
2021/05/13 05:17:45;;;;;;;4.50;0.77;;;24.20;46.40;;;;;;4385100;32;20192;-35
2021/05/13 05:20:12;;;;;;;2.20;0.77;;;24.10;46.70;;;;;;4384939;32;20093;-36
2021/05/13 05:22:38;;;;;;;3.15;1.25;;;24.10;45.90;;;;;;4385725;32;20134;-37
2021/05/13 05:25:06;;;;;;;4.10;1.25;;;24.10;46.10;;;;;;4387465;32;20154;-36
2021/05/13 05:27:34;;;;;;;5.53;1.80;;;24.10;47.10;;;;;;4386867;32;20069;-37
2021/05/13 05:30:01;;;;;;;6.80;2.37;;;24.20;48.70;;;;;;4389480;32;20066;-37
2021/05/13 05:32:27;;;;;;;7.35;3.08;;;24.20;49.00;;;;;;4390699;32;20062;-35
2021/05/13 05:34:53;;;;;;;12.18;2.60;;;24.20;50.00;;;;;;4390960;32;20119;-37
2021/05/13 05:37:20;;;;;;;6.28;1.85;;;24.20;50.20;;;;;;4390708;32;20084;-37
2021/05/13 05:39:46;;;;;;;3.45;1.40;;;24.20;50.00;;;;;;4390564;32;20155;-37
2021/05/13 05:42:13;;;;;;;6.93;1.55;;;24.30;49.90;;;;;;4389016;32;20627;-37
2021/05/13 05:44:39;;;;;;;7.93;1.50;;;24.40;49.80;;;;;;4390451;32;20058;-37
2021/05/13 05:47:06;;;;;;;0.85;0.70;;;24.50;49.80;;;;;;4383264;32;20159;-36
2021/05/13 05:49:32;;;;;;;4.28;1.67;;;24.60;49.10;;;;;;4372704;32;20062;-37
2021/05/13 05:51:59;;;;;;;7.00;1.83;;;24.60;47.90;;;;;;4347347;32;20510;-38
2021/05/13 05:54:25;;;;;;;4.18;1.90;;;24.60;47.00;;;;;;4370501;32;20199;-36
2021/05/13 05:56:53;;;;;;;3.90;2.33;;;24.50;46.90;;;;;;4343185;32;20167;-38
2021/05/13 05:59:19;;;;;;;6.47;2.17;;;24.50;46.80;;;;;;4321018;32;20105;-39
2021/05/13 06:01:46;;;;;;;5.07;2.22;;;24.50;46.60;;;;;;4345542;32;20103;-42
2021/05/13 06:04:12;;;;;;;3.45;2.15;;;24.40;46.50;;;;;;4333359;32;20081;-40
2021/05/13 06:06:39;;;;;;;7.22;3.10;;;24.20;46.50;;;;;;4315886;33;20528;-39
2021/05/13 06:09:06;;;;;;;4.95;3.53;;;24.10;47.00;;;;;;4315924;33;20087;-39
2021/05/13 06:11:33;;;;;;;7.37;3.72;;;23.80;47.70;;;;;;4315748;33;20139;-39
2021/05/13 06:13:59;;;;;;;6.15;3.45;;;23.60;48.00;;;;;;4313056;33;20086;-35
2021/05/13 06:16:26;;;;;;;8.10;3.15;;;23.40;48.70;;;;;;4286578;33;20090;-38
2021/05/13 06:18:57;;;;;;;6.43;3.45;;;23.10;49.00;;;;;;4298629;33;20154;-37
2021/05/13 06:21:24;;;;;;;4.28;2.70;;;22.90;50.00;;;;;;4286744;33;20625;-37
2021/05/13 06:23:52;;;;;;;5.12;2.65;;;22.70;50.40;;;;;;4287028;33;20099;-36
2021/05/13 06:26:27;;;;;;;7.82;5.28;;;22.50;51.10;;;;;;4278394;33;20621;-37
2021/05/13 06:28:54;;;;;;;9.02;4.90;;;22.30;51.30;;;;;;4297046;33;20150;-38
2021/05/13 06:31:21;;;;;;;9.73;4.82;;;22.20;51.30;;;;;;4296089;33;20202;-38
2021/05/13 06:33:48;;;;;;;8.35;4.60;;;22.10;51.50;;;;;;4296093;33;20083;-39
2021/05/13 06:36:15;;;;;;;5.45;3.80;;;22.00;51.40;;;;;;4281743;33;20099;-38
2021/05/13 06:38:43;;;;;;;6.68;4.70;;;22.00;51.50;;;;;;4266833;33;20080;-36
2021/05/13 06:41:09;;;;;;;7.20;5.47;;;22.00;51.30;;;;;;4254315;33;20080;-37
2021/05/13 06:43:38;;;;;;;12.07;5.30;;;22.00;51.20;;;;;;4255362;33;20075;-38
2021/05/13 06:46:05;;;;;;;10.32;5.93;;;22.10;51.00;;;;;;4243776;33;20219;-36
2021/05/13 06:48:34;;;;;;;13.55;5.90;;;22.20;51.30;;;;;;4280905;33;20080;-35
2021/05/13 06:51:04;;;;;;;9.13;5.57;;;22.30;50.90;;;;;;4257510;33;20072;-37
2021/05/13 06:53:32;;;;;;;9.48;4.62;;;22.40;50.60;;;;;;4276695;33;20084;-37
2021/05/13 06:55:58;;;;;;;6.20;4.85;;;22.50;50.30;;;;;;4244023;33;20144;-36
2021/05/13 06:58:25;;;;;;;9.35;6.05;;;22.60;50.40;;;;;;4252915;33;20080;-37
2021/05/13 07:00:51;;;;;;;8.13;4.18;;;22.70;50.20;;;;;;4229007;33;20077;-36
2021/05/13 07:03:19;;;;;;;10.90;6.90;;;22.80;50.10;;;;;;4241477;33;20084;-36
2021/05/13 07:05:45;;;;;;;8.55;6.35;;;23.00;50.40;;;;;;4276106;33;20087;-37
2021/05/13 07:08:12;;;;;;;7.62;4.95;;;23.20;50.20;;;;;;4269153;33;20171;-36
2021/05/13 07:10:38;;;;;;;5.47;4.68;;;23.50;50.00;;;;;;4269504;33;20091;-37
2021/05/13 07:13:05;;;;;;;10.77;6.32;;;23.90;48.90;;;;;;4247618;33;20072;-38
2021/05/13 07:15:35;;;;;;;10.27;6.03;;;24.20;48.60;;;;;;4280703;33;20144;-37
2021/05/13 07:18:01;;;;;;;5.93;4.75;;;24.60;47.50;;;;;;4257474;33;20103;-39
2021/05/13 07:20:30;;;;;;;10.90;5.85;;;25.00;45.70;;;;;;4268903;33;20163;-37
2021/05/13 07:22:57;;;;;;;7.45;5.35;;;25.30;44.70;;;;;;4268830;33;20168;-37
2021/05/13 07:25:24;;;;;;;8.32;5.50;;;25.70;44.60;;;;;;4280508;33;20126;-36
2021/05/13 07:27:51;;;;;;;12.48;5.80;;;26.00;43.10;;;;;;4312184;33;20082;-35
2021/05/13 07:30:18;;;;;;;10.55;5.68;;;26.40;43.00;;;;;;4297725;33;20115;-36
2021/05/13 07:32:46;;;;;;;9.15;5.65;;;26.80;42.20;;;;;;4280602;33;20096;-35
2021/05/13 07:35:14;;;;;;;4.35;3.70;;;27.20;40.90;;;;;;4268277;33;20155;-36
2021/05/13 07:37:41;;;;;;;6.40;4.80;;;27.60;40.30;;;;;;4233925;33;20258;-36
2021/05/13 07:40:09;;;;;;;6.87;4.55;;;27.90;39.10;;;;;;4202832;33;20085;-35
2021/05/13 07:42:35;;;;;;;7.93;5.12;;;28.30;38.40;;;;;;4211967;33;20295;-35
2021/05/13 07:45:03;;;;;;;9.00;5.05;;;28.50;37.50;;;;;;4212405;33;20100;-36
2021/05/13 07:47:29;;;;;;;6.80;3.35;;;28.80;37.00;;;;;;4212103;33;20475;-36
2021/05/13 07:49:56;;;;;;;7.65;4.45;;;29.00;36.50;;;;;;4211996;34;20090;-35
2021/05/13 07:52:23;;;;;;;9.85;4.70;;;29.00;35.80;;;;;;4214785;33;20201;-36
2021/05/13 07:54:50;;;;;;;5.78;4.45;;;29.10;35.20;;;;;;4223511;33;20172;-36
2021/05/13 07:57:16;;;;;;;6.70;4.18;;;29.10;34.80;;;;;;4211903;33;20534;-37
2021/05/13 07:59:43;;;;;;;7.32;4.97;;;29.00;34.70;;;;;;4223722;33;20157;-35
2021/05/13 08:13:31;;;;;;;7.32;5.03;;;28.90;34.50;;;;;;3807937;37;20048;-32
2021/05/13 08:15:58;;;;;;;6.82;5.25;;;28.70;35.90;;;;;;4385890;32;20092;-32
2021/05/13 08:18:24;;;;;;;7.03;5.57;;;28.90;35.40;;;;;;4386068;32;20531;-33
2021/05/13 08:20:51;;;;;;;10.55;5.18;;;29.10;35.60;;;;;;4385545;32;20065;-33
2021/05/13 08:23:18;;;;;;;12.13;5.28;;;29.20;35.20;;;;;;4371701;32;20077;-36
2021/05/13 08:25:44;;;;;;;7.10;4.00;;;29.50;34.90;;;;;;4385976;32;20065;-36
2021/05/13 08:28:11;;;;;;;8.27;4.55;;;29.60;33.80;;;;;;4386118;32;20094;-38
2021/05/13 08:30:38;;;;;;;6.03;4.22;;;30.00;32.70;;;;;;4385660;32;20520;-36
2021/05/13 08:33:04;;;;;;;6.68;4.05;;;30.20;32.50;;;;;;4385570;32;20119;-32
2021/05/13 08:35:31;;;;;;;8.35;4.72;;;30.50;33.10;;;;;;4385680;32;20137;-30
2021/05/13 08:37:57;;;;;;;6.93;4.90;;;30.80;31.80;;;;;;4371561;32;20066;-32
2021/05/13 08:40:24;;;;;;;6.50;4.87;;;31.10;31.80;;;;;;4385473;32;20101;-33
2021/05/13 08:42:50;;;;;;;12.25;4.30;;;31.20;31.50;;;;;;4385247;32;20069;-30
2021/05/13 08:45:17;;;;;;;8.35;3.72;;;31.40;31.60;;;;;;4385597;32;20066;-30
2021/05/13 08:47:47;;;;;;;9.73;4.25;;;31.50;31.40;;;;;;4385150;32;20175;-30
2021/05/13 08:50:17;;;;;;;4.25;3.85;;;31.50;30.60;;;;;;4385147;32;20485;-33
2021/05/13 08:52:44;;;;;;;7.43;4.22;;;31.60;29.70;;;;;;4385318;32;20088;-32
2021/05/13 08:55:11;;;;;;;4.93;3.22;;;31.70;29.50;;;;;;4385455;32;20086;-31
2021/05/13 08:57:37;;;;;;;10.45;4.28;;;31.80;28.40;;;;;;4371074;32;20059;-39
2021/05/13 09:00:08;;;;;;;8.63;3.40;;;32.00;28.20;;;;;;4371074;32;20141;-36
2021/05/13 09:02:35;;;;;;;3.10;2.80;;;32.10;28.70;;;;;;4384974;32;20070;-36
2021/05/13 09:05:01;;;;;;;8.52;3.90;;;32.30;27.10;;;;;;4372470;32;20062;-36
2021/05/13 09:07:30;;;;;;;7.15;3.45;;;32.40;27.70;;;;;;4355942;32;20462;-39
2021/05/13 09:10:16;;;;;;;5.32;3.55;;;32.60;27.20;;;;;;4370010;32;20077;-38
2021/05/13 09:12:53;;;;;;;8.18;4.53;;;32.70;27.20;;;;;;4367135;32;20258;-33
2021/05/13 09:15:29;;;;;;;12.13;4.03;;;32.80;27.60;;;;;;4360144;32;20069;-32
2021/05/13 09:17:58;;;;;;;5.40;3.55;;;32.80;27.20;;;;;;4346582;32;20106;-30
2021/05/13 09:20:27;;;;;;;10.32;4.00;;;32.90;27.20;;;;;;4359528;32;20077;-33
2021/05/13 09:23:37;;;;;;;8.77;3.97;;;33.00;27.60;;;;;;4359693;32;20519;-31
2021/05/13 09:26:09;;;;;;;6.00;3.50;;;33.10;27.40;;;;;;4349378;32;20073;-30
2021/05/13 09:28:35;;;;;;;4.43;3.47;;;33.20;27.30;;;;;;4359773;32;20563;-31
2021/05/13 09:31:04;;;;;;;7.45;3.53;;;33.20;27.60;;;;;;4345995;32;20055;-31
2021/05/13 09:33:35;;;;;;;8.25;4.10;;;33.20;27.30;;;;;;4333738;32;20063;-31
2021/05/13 09:36:22;;;;;;;9.52;4.55;;;33.20;27.50;;;;;;4359664;32;20069;-32
2021/05/13 09:38:49;;;;;;;10.63;3.95;;;33.30;27.40;;;;;;4359750;32;20047;-30
2021/05/13 09:41:35;;;;;;;10.00;4.75;;;33.30;27.60;;;;;;4360014;32;20086;-34
2021/05/13 09:44:03;;;;;;;8.85;3.72;;;33.40;27.90;;;;;;4345925;32;20164;-31
2021/05/13 09:46:36;;;;;;;9.95;4.32;;;33.40;27.70;;;;;;4333679;32;20132;-32
2021/05/13 09:49:03;;;;;;;5.40;3.42;;;33.40;27.90;;;;;;4359634;32;20470;-30
2021/05/13 09:51:37;;;;;;;7.72;3.85;;;33.40;27.50;;;;;;4359196;32;20073;-33
2021/05/13 09:54:15;;;;;;;8.90;4.78;;;33.30;27.90;;;;;;4359347;32;20086;-31
2021/05/13 09:56:54;;;;;;;7.87;4.05;;;33.30;28.10;;;;;;4359404;32;20086;-33
2021/05/13 09:59:23;;;;;;;11.70;9.00;;;33.30;28.00;;;;;;4359406;32;20606;-32
2021/05/13 10:01:51;;;;;;;6.75;4.07;;;33.20;28.60;;;;;;4359293;32;20135;-32
2021/05/13 10:04:18;;;;;;;5.68;3.75;;;33.20;28.30;;;;;;4359638;32;20490;-34
2021/05/13 10:06:45;;;;;;;7.07;3.92;;;33.30;28.30;;;;;;4345729;32;20075;-32
2021/05/13 10:09:16;;;;;;;12.07;4.22;;;33.30;28.10;;;;;;4359156;32;20062;-33
2021/05/13 10:11:54;;;;;;;6.97;3.08;;;33.50;28.00;;;;;;4326831;33;20074;-30
2021/05/13 10:14:22;;;;;;;3.53;2.80;;;33.60;26.40;;;;;;4327407;33;20206;-31
2021/05/13 10:16:50;;;;;;;7.90;2.85;;;33.80;26.20;;;;;;4326894;33;20067;-31
2021/05/13 10:19:27;;;;;;;5.65;2.83;;;34.00;25.80;;;;;;4327327;33;20060;-32
2021/05/13 10:21:55;;;;;;;8.77;3.47;;;34.10;25.90;;;;;;4326611;33;20087;-32
2021/05/13 10:24:22;;;;;;;11.35;4.30;;;34.30;25.70;;;;;;4326511;33;20526;-32
2021/05/13 10:26:50;;;;;;;10.07;4.05;;;34.40;25.20;;;;;;4326597;33;20649;-37
2021/05/13 10:29:22;;;;;;;12.80;3.87;;;34.60;25.10;;;;;;4326882;33;20097;-32
2021/05/13 10:32:17;;;;;;;8.07;3.50;;;34.80;25.10;;;;;;4327155;33;20061;-32
2021/05/13 10:35:08;;;;;;;6.22;3.10;;;34.90;25.50;;;;;;4327305;33;20051;-31
2021/05/13 10:37:42;;;;;;;5.03;2.78;;;34.90;25.20;;;;;;4315506;33;20083;-31
2021/05/13 10:40:43;;;;;;;5.35;3.50;;;35.00;25.20;;;;;;4326962;33;20630;-32
2021/05/13 10:43:03;;;;;;;5.80;3.30;;;34.90;25.10;;;;;;4326322;33;20090;-31
2021/05/13 10:45:30;;;;;;;5.40;3.50;;;35.00;25.30;;;;;;4327003;33;20055;-32
2021/05/13 10:48:26;;;;;;;6.07;3.15;;;35.00;25.40;;;;;;4326944;33;20187;-31
2021/05/13 10:51:10;;;;;;;4.78;3.42;;;35.00;25.60;;;;;;4317620;32;20142;-40
2021/05/13 10:56:20;;;;;;;4.57;2.50;;;35.20;25.00;;;;;;4358574;32;20121;-37
2021/05/13 10:59:07;;;;;;;6.40;3.10;;;35.20;24.70;;;;;;4344666;32;20582;-36
2021/05/13 11:01:50;;;;;;;7.95;3.55;;;35.30;24.50;;;;;;4343885;33;20067;-38
2021/05/13 11:04:23;;;;;;;5.75;3.20;;;35.40;24.80;;;;;;4343883;33;20172;-33
2021/05/13 11:07:11;;;;;;;8.98;3.03;;;35.50;24.70;;;;;;4344035;33;20078;-33
2021/05/13 11:09:47;;;;;;;14.77;3.45;;;35.60;24.20;;;;;;4343396;33;20091;-30
2021/05/13 11:12:18;;;;;;;7.05;3.15;;;35.70;24.30;;;;;;4342832;33;20481;-31
2021/05/13 11:20:19;;;;;;;6.20;2.97;;;36.10;24.20;;;;;;4342893;33;20510;-34
2021/05/13 11:23:25;;;;;;;9.13;3.20;;;36.40;23.80;;;;;;4341424;33;20078;-32
2021/05/13 11:26:15;;;;;;;17.15;3.58;;;36.60;24.00;;;;;;4327346;33;20051;-32
2021/05/13 11:28:43;;;;;;;3.17;2.53;;;36.90;23.90;;;;;;4328704;33;20066;-32
2021/05/13 11:31:20;;;;;;;8.63;3.00;;;37.00;23.50;;;;;;4341575;33;20119;-31
2021/05/13 11:33:58;;;;;;;7.45;3.37;;;37.10;23.60;;;;;;4341571;33;20082;-32
2021/05/13 11:36:51;;;;;;;5.90;2.90;;;37.20;23.30;;;;;;4341221;32;20066;-34
2021/05/13 11:39:17;;;;;;;5.35;3.62;;;37.20;23.70;;;;;;4338714;33;20063;-34
2021/05/13 11:41:50;;;;;;;6.57;2.75;;;37.20;23.70;;;;;;4341416;33;20058;-31
2021/05/13 11:44:21;;;;;;;7.35;3.12;;;37.30;23.00;;;;;;4341621;33;20059;-33
2021/05/13 11:46:52;;;;;;;7.30;2.85;;;37.20;22.70;;;;;;4327676;33;20149;-31
2021/05/13 11:49:18;;;;;;;3.17;2.78;;;37.20;23.10;;;;;;4341992;33;20160;-32
2021/05/13 11:51:44;;;;;;;6.12;3.17;;;37.10;22.70;;;;;;4341369;33;20150;-32
2021/05/13 11:54:11;;;;;;;5.37;3.10;;;37.10;22.70;;;;;;4341135;33;20074;-31
2021/05/13 11:56:41;;;;;;;5.75;2.83;;;37.00;22.90;;;;;;4342167;32;20078;-31
2021/05/13 11:59:14;;;;;;;4.75;2.80;;;36.90;22.70;;;;;;4357676;32;20081;-33
2021/05/13 12:01:42;;;;;;;4.50;2.72;;;37.00;22.60;;;;;;4358259;32;20059;-29
2021/05/13 12:04:08;;;;;;;4.57;2.60;;;36.90;22.50;;;;;;4357442;32;20515;-32
2021/05/13 12:06:41;;;;;;;4.47;2.50;;;36.90;23.10;;;;;;4310511;33;20106;-30
2021/05/13 12:09:08;;;;;;;6.47;2.50;;;37.00;23.00;;;;;;4299044;33;20086;-30
2021/05/13 12:11:34;;;;;;;6.68;2.53;;;37.00;22.80;;;;;;4295984;33;20099;-32
2021/05/13 12:14:09;;;;;;;4.00;2.50;;;37.10;23.40;;;;;;4284281;33;20516;-31
2021/05/13 12:16:36;;;;;;;5.60;2.28;;;37.20;23.20;;;;;;4296941;33;20057;-31
2021/05/13 12:19:07;;;;;;;7.50;3.47;;;37.20;23.10;;;;;;4296376;33;20153;-32
2021/05/13 12:21:36;;;;;;;5.87;2.17;;;37.20;22.80;;;;;;4284897;33;20068;-30
2021/05/13 12:24:04;;;;;;;8.77;3.62;;;37.10;23.00;;;;;;4296346;33;20599;-33
2021/05/13 12:26:33;;;;;;;9.65;2.70;;;37.00;23.10;;;;;;4296572;33;20198;-31
2021/05/13 12:29:00;;;;;;;7.07;3.05;;;36.80;23.20;;;;;;4284429;33;20068;-31
2021/05/13 12:31:33;;;;;;;6.15;3.22;;;36.70;23.40;;;;;;4284606;33;20135;-31
2021/05/13 12:34:04;;;;;;;4.45;2.70;;;36.60;23.30;;;;;;4296406;33;20135;-30
2021/05/13 12:36:35;;;;;;;4.37;2.28;;;36.60;23.10;;;;;;4296207;33;20227;-34
2021/05/13 12:39:04;;;;;;;5.20;2.60;;;36.50;23.30;;;;;;4285144;33;20148;-31
2021/05/13 12:41:31;;;;;;;4.25;2.05;;;36.40;23.00;;;;;;4297118;33;20068;-32
2021/05/13 12:44:16;;;;;;;11.52;2.97;;;36.40;23.10;;;;;;4332580;32;20057;-38
2021/05/13 12:46:47;;;;;;;5.43;2.47;;;36.30;23.40;;;;;;4357574;32;20074;-35
2021/05/13 12:49:24;;;;;;;6.85;2.67;;;36.20;23.10;;;;;;4359748;32;20078;-30
2021/05/13 12:52:10;;;;;;;10.48;3.25;;;36.10;23.10;;;;;;4360502;32;20070;-35
2021/05/13 12:54:41;;;;;;;7.35;2.65;;;36.10;23.00;;;;;;4360452;32;20454;-31
2021/05/13 12:57:13;;;;;;;12.00;3.30;;;36.00;23.20;;;;;;4356354;32;20518;-30
2021/05/13 12:59:42;;;;;;;3.58;2.00;;;35.80;23.20;;;;;;4345547;33;20068;-31
2021/05/13 13:02:08;;;;;;;7.45;2.72;;;35.70;23.00;;;;;;4345173;33;20542;-30
2021/05/13 13:04:48;;;;;;;7.43;2.55;;;35.70;23.20;;;;;;4345313;33;20079;-33
2021/05/13 13:07:15;;;;;;;7.82;2.97;;;35.70;23.20;;;;;;4345177;33;20658;-33
2021/05/13 13:09:42;;;;;;;9.68;3.10;;;35.60;23.30;;;;;;4345226;33;20069;-31
2021/05/13 13:12:15;;;;;;;7.68;2.80;;;35.60;23.60;;;;;;4345128;33;20132;-31
2021/05/13 13:14:47;;;;;;;7.18;2.33;;;35.70;23.50;;;;;;4345230;33;20055;-31
2021/05/13 13:17:24;;;;;;;10.35;2.65;;;35.70;23.40;;;;;;4345364;33;20071;-32